Terminal Aerodrome Forecast
Issued by NWS Cleveland, OH

Home | Current Version | Previous Version | Text Only | Print | Product List | Glossary On
Versions: 1 2 3 4 5 6 7 8 9 10 11 12 13 14 15 16 17 18 19 20 21 22 23 24 25 26 27 28
000
FTUS41 KCLE 180540
TAFERI
TAF
KERI 180540Z 1806/1906 21011KT P6SM OVC035
     FM181400 22012G23KT P6SM VCSH OVC015
     FM182000 22013G23KT P6SM OVC007
     FM190400 22015G27KT P6SM OVC010=

USA.gov is the U.S. government's official web portal to all federal, state and local government web resources and services.